createdAt,value
2022-07-26T00:00:10.049Z,99216.63
2022-07-26T00:00:42.408Z,99221.34
2022-07-26T00:01:14.690Z,99220.38
2022-07-26T00:01:46.831Z,99223.72
2022-07-26T00:02:18.937Z,99222.34
2022-07-26T00:02:51.124Z,99225.69
2022-07-26T00:03:23.076Z,99226.69
2022-07-26T00:03:55.040Z,99224.50
2022-07-26T00:04:27.893Z,99228.28
2022-07-26T00:04:59.813Z,99229.44
2022-07-26T00:05:31.850Z,99218.41
2022-07-26T00:06:04.389Z,99216.06
2022-07-26T00:06:36.794Z,99221.00
2022-07-26T00:07:08.731Z,99219.22
2022-07-26T00:07:40.786Z,99221.00
2022-07-26T00:08:12.883Z,99216.94
2022-07-26T00:08:44.917Z,99212.72
2022-07-26T00:09:16.858Z,99218.34
2022-07-26T00:09:48.781Z,99211.66
2022-07-26T00:10:20.748Z,99209.16
2022-07-26T00:10:52.786Z,99207.50
2022-07-26T00:11:27.049Z,99209.97
2022-07-26T00:11:59.386Z,99207.41
2022-07-26T00:12:31.474Z,99205.25
2022-07-26T00:13:04.636Z,99207.31
2022-07-26T00:13:36.661Z,99206.34
2022-07-26T00:14:09.304Z,99208.41
2022-07-26T00:14:41.299Z,99208.31
2022-07-26T00:15:13.329Z,99207.03
2022-07-26T00:15:46.373Z,99204.25
2022-07-26T00:16:18.518Z,99211.44
2022-07-26T00:16:50.906Z,99213.31
2022-07-26T00:17:22.938Z,99205.22
2022-07-26T00:17:54.886Z,99203.25
2022-07-26T00:18:26.989Z,99206.22
2022-07-26T00:18:58.921Z,99212.69
2022-07-26T00:19:31.078Z,99209.19
2022-07-26T00:20:03.939Z,99209.41
2022-07-26T00:20:36.484Z,99205.03
2022-07-26T00:21:11.665Z,99207.91
2022-07-26T00:21:43.874Z,99211.25
2022-07-26T00:22:34.322Z,99211.16
2022-07-26T00:23:06.661Z,99210.03
2022-07-26T00:23:38.944Z,99212.69
2022-07-26T00:24:10.952Z,99213.31
2022-07-26T00:24:42.975Z,99213.41
2022-07-26T00:25:14.881Z,99207.59
2022-07-26T00:25:47.114Z,99209.78
2022-07-26T00:26:19.035Z,99208.97
2022-07-26T00:26:50.942Z,99211.44
2022-07-26T00:27:23.195Z,99210.88
2022-07-26T00:27:57.645Z,99213.72
2022-07-26T00:28:29.969Z,99206.34
2022-07-26T00:29:04.850Z,99203.28
2022-07-26T00:29:37.124Z,99205.84
2022-07-26T00:30:10.622Z,99206.59
2022-07-26T00:30:43.050Z,99209.66
2022-07-26T00:31:15.206Z,99212.19
2022-07-26T00:31:47.208Z,99203.56
2022-07-26T00:32:19.167Z,99209.00
2022-07-26T00:32:52.760Z,99205.75
2022-07-26T00:33:24.718Z,99207.31
2022-07-26T00:33:56.701Z,99214.31
2022-07-26T00:34:28.641Z,99203.19
2022-07-26T00:35:00.588Z,99201.78
2022-07-26T00:35:33.594Z,99206.00
2022-07-26T00:36:05.922Z,99203.78
2022-07-26T00:36:41.147Z,99205.44
2022-07-26T00:37:19.794Z,99196.41
2022-07-26T00:37:52.924Z,99204.94
2022-07-26T00:38:25.031Z,99195.88
2022-07-26T00:38:57.072Z,99204.62
2022-07-26T00:39:29.210Z,99202.88
2022-07-26T00:40:01.151Z,99201.00
2022-07-26T00:40:33.212Z,99205.50
2022-07-26T00:41:05.840Z,99203.44
2022-07-26T00:41:37.814Z,99200.41
2022-07-26T00:42:09.857Z,99202.09
2022-07-26T00:42:42.340Z,99198.97
2022-07-26T00:43:14.577Z,99198.97
2022-07-26T00:44:00.334Z,99197.88
2022-07-26T00:44:40.670Z,99196.41
2022-07-26T00:45:13.869Z,99197.19
2022-07-26T00:45:45.894Z,99196.56
2022-07-26T00:46:18.070Z,99194.09
2022-07-26T00:46:50.020Z,99202.44
2022-07-26T00:47:21.996Z,99196.25
2022-07-26T00:47:53.967Z,99190.06
2022-07-26T00:48:26.412Z,99191.81
2022-07-26T00:48:58.521Z,99188.50
2022-07-26T00:49:30.467Z,99191.28
2022-07-26T00:50:03.372Z,99180.72
2022-07-26T00:50:36.046Z,99180.47
2022-07-26T00:51:08.031Z,99184.19
2022-07-26T00:51:40.373Z,99182.56
2022-07-26T00:52:13.384Z,99174.91
2022-07-26T00:52:50.207Z,99172.94
2022-07-26T00:53:23.211Z,99176.38
2022-07-26T00:53:55.515Z,99175.41
2022-07-26T00:54:27.730Z,99178.16
2022-07-26T00:54:59.798Z,99179.16
2022-07-26T00:55:31.839Z,99168.13
2022-07-26T00:56:04.078Z,99174.62
2022-07-26T00:56:36.055Z,99165.59
2022-07-26T00:57:08.089Z,99176.78
2022-07-26T00:57:40.726Z,99178.34
2022-07-26T00:58:13.739Z,99177.81
2022-07-26T00:58:45.684Z,99178.50
2022-07-26T00:59:18.355Z,99171.78
2022-07-26T00:59:50.971Z,99174.84
2022-07-26T01:00:27.830Z,99178.34
2022-07-26T01:00:59.894Z,99171.38
2022-07-26T01:01:32.014Z,99168.22
2022-07-26T01:02:06.781Z,99177.69
2022-07-26T01:02:39.183Z,99172.34
2022-07-26T01:03:11.283Z,99174.69
2022-07-26T01:03:43.443Z,99166.88
2022-07-26T01:04:15.468Z,99162.94
2022-07-26T01:04:48.371Z,99166.38
2022-07-26T01:05:22.810Z,99165.88
2022-07-26T01:05:54.764Z,99164.88
2022-07-26T01:06:27.598Z,99171.28
2022-07-26T01:07:01.006Z,99162.50
2022-07-26T01:07:33.022Z,99167.03
2022-07-26T01:08:05.107Z,99164.41
2022-07-26T01:08:37.156Z,99169.84
2022-07-26T01:09:10.726Z,99174.44
2022-07-26T01:09:43.422Z,99173.34
2022-07-26T01:10:15.720Z,99171.19
2022-07-26T01:10:48.062Z,99173.34
2022-07-26T01:11:19.979Z,99175.50
2022-07-26T01:11:51.934Z,99175.50
2022-07-26T01:12:24.491Z,99170.00
2022-07-26T01:12:56.414Z,99167.25
2022-07-26T01:13:31.988Z,99174.72
2022-07-26T01:14:07.107Z,99164.22
2022-07-26T01:14:44.392Z,99165.78
2022-07-26T01:15:18.040Z,99166.38
2022-07-26T01:15:49.996Z,99168.81
2022-07-26T01:16:22.153Z,99172.16
2022-07-26T01:16:54.274Z,99167.63
2022-07-26T01:17:26.204Z,99162.41
2022-07-26T01:17:58.104Z,99163.69
2022-07-26T01:18:30.051Z,99162.31
2022-07-26T01:19:01.955Z,99159.66
2022-07-26T01:19:33.970Z,99161.94
2022-07-26T01:20:08.696Z,99160.94
2022-07-26T01:20:42.244Z,99162.41
2022-07-26T01:21:14.882Z,99156.63
2022-07-26T01:21:47.147Z,99152.09
2022-07-26T01:22:19.064Z,99156.41
2022-07-26T01:22:51.038Z,99157.19
2022-07-26T01:23:22.931Z,99157.41
2022-07-26T01:23:55.053Z,99154.75
2022-07-26T01:24:26.993Z,99153.66
2022-07-26T01:24:58.969Z,99153.47
2022-07-26T01:25:33.118Z,99150.50
2022-07-26T01:26:16.054Z,99155.22
2022-07-26T01:26:48.033Z,99141.44
2022-07-26T01:27:20.333Z,99148.03
2022-07-26T01:27:53.647Z,99141.22
2022-07-26T01:28:26.373Z,99147.53
2022-07-26T01:28:58.288Z,99150.09
2022-07-26T01:29:34.786Z,99143.53
2022-07-26T01:30:11.337Z,99150.91
2022-07-26T01:30:43.272Z,99149.81
2022-07-26T01:31:16.311Z,99147.56
2022-07-26T01:31:48.937Z,99151.31
2022-07-26T01:32:20.971Z,99144.81
2022-07-26T01:32:52.934Z,99141.66
2022-07-26T01:33:28.087Z,99141.66
2022-07-26T01:34:00.031Z,99141.06
2022-07-26T01:34:32.222Z,99144.50
2022-07-26T01:35:05.804Z,99142.63
2022-07-26T01:35:37.720Z,99138.59
2022-07-26T01:36:10.079Z,99145.59
2022-07-26T01:36:42.305Z,99140.78
2022-07-26T01:37:14.298Z,99141.66
2022-07-26T01:37:46.210Z,99141.66
2022-07-26T01:38:18.113Z,99139.19
2022-07-26T01:38:50.263Z,99140.78
2022-07-26T01:39:22.617Z,99143.12
2022-07-26T01:39:54.534Z,99143.44
2022-07-26T01:40:26.648Z,99139.78
2022-07-26T01:40:58.557Z,99137.91
2022-07-26T01:41:38.399Z,99143.72
2022-07-26T01:42:10.822Z,99141.06
2022-07-26T01:42:42.919Z,99137.13
2022-07-26T01:43:14.837Z,99137.94
2022-07-26T01:43:46.852Z,99137.31
2022-07-26T01:44:19.440Z,99134.25
2022-07-26T01:44:51.467Z,99134.38
2022-07-26T01:45:23.454Z,99136.16
2022-07-26T01:45:55.950Z,99136.44
2022-07-26T01:46:28.174Z,99137.53
2022-07-26T01:47:00.132Z,99138.31
2022-07-26T01:47:32.356Z,99136.16
2022-07-26T01:48:04.628Z,99139.87
2022-07-26T01:48:37.296Z,99136.94
2022-07-26T01:49:09.554Z,99131.59
2022-07-26T01:49:41.578Z,99129.00
2022-07-26T01:50:13.460Z,99128.03
2022-07-26T01:50:45.376Z,99125.50
2022-07-26T01:51:17.544Z,99126.19
2022-07-26T01:51:49.438Z,99130.72
2022-07-26T01:52:21.539Z,99126.19
2022-07-26T01:52:53.770Z,99128.75
2022-07-26T01:53:25.688Z,99127.94
2022-07-26T01:53:57.628Z,99131.78
2022-07-26T01:54:29.617Z,99129.41
2022-07-26T01:55:01.728Z,99130.31
2022-07-26T01:55:34.120Z,99130.13
2022-07-26T01:56:06.607Z,99128.44
2022-07-26T01:56:38.554Z,99126.66
2022-07-26T01:57:10.800Z,99124.13
2022-07-26T01:57:45.930Z,99122.34
2022-07-26T01:58:18.247Z,99122.34
2022-07-26T01:58:50.336Z,99121.47
2022-07-26T01:59:23.504Z,99122.72
2022-07-26T01:59:55.688Z,99118.78
2022-07-26T02:00:29.056Z,99118.22
2022-07-26T02:01:01.315Z,99125.28
2022-07-26T02:01:38.996Z,99124.09
2022-07-26T02:02:11.828Z,99120.75
2022-07-26T02:02:43.979Z,99123.56
2022-07-26T02:03:16.087Z,99126.66
2022-07-26T02:03:48.088Z,99120.97
2022-07-26T02:04:38.455Z,99116.63
2022-07-26T02:05:11.239Z,99119.97
2022-07-26T02:05:43.176Z,99126.59
2022-07-26T02:06:15.400Z,99115.38
2022-07-26T02:06:47.308Z,99120.28
2022-07-26T02:07:20.112Z,99120.19
2022-07-26T02:07:52.166Z,99118.03
2022-07-26T02:08:24.119Z,99122.16
2022-07-26T02:08:56.228Z,99115.09
2022-07-26T02:09:32.058Z,99117.84
2022-07-26T02:10:12.622Z,99114.78
2022-07-26T02:11:00.413Z,99120.97
2022-07-26T02:11:35.705Z,99118.22
2022-07-26T02:12:08.220Z,99125.41
2022-07-26T02:12:40.574Z,99117.75
2022-07-26T02:13:15.221Z,99120.09
2022-07-26T02:13:52.674Z,99122.97
2022-07-26T02:14:28.172Z,99117.06
2022-07-26T02:15:00.502Z,99115.06
2022-07-26T02:15:32.548Z,99112.00
2022-07-26T02:16:07.043Z,99116.25
2022-07-26T02:16:39.266Z,99116.16
2022-07-26T02:17:11.164Z,99117.34
2022-07-26T02:17:44.599Z,99118.81
2022-07-26T02:18:16.604Z,99118.63
2022-07-26T02:18:48.530Z,99110.06
2022-07-26T02:19:20.451Z,99119.75
2022-07-26T02:19:52.455Z,99118.34
2022-07-26T02:20:24.368Z,99124.41
2022-07-26T02:20:57.632Z,99126.66
2022-07-26T02:21:29.513Z,99116.44
2022-07-26T02:22:01.851Z,99115.84
2022-07-26T02:22:33.791Z,99117.81
2022-07-26T02:23:06.243Z,99108.97
2022-07-26T02:23:39.660Z,99112.72
2022-07-26T02:24:13.731Z,99118.59
2022-07-26T02:24:47.489Z,99119.50
2022-07-26T02:25:19.421Z,99122.16
2022-07-26T02:25:52.155Z,99118.50
2022-07-26T02:26:24.054Z,99120.75
2022-07-26T02:27:00.753Z,99119.75
2022-07-26T02:27:33.064Z,99114.03
2022-07-26T02:28:05.322Z,99115.44
2022-07-26T02:28:37.240Z,99117.16
2022-07-26T02:29:09.447Z,99113.81
2022-07-26T02:29:41.566Z,99123.06
2022-07-26T02:30:13.818Z,99114.50
2022-07-26T02:30:47.408Z,99109.59
2022-07-26T02:31:19.405Z,99114.75
2022-07-26T02:31:53.398Z,99113.47
2022-07-26T02:32:25.336Z,99118.38
2022-07-26T02:32:57.546Z,99115.06
2022-07-26T02:33:29.463Z,99117.13
2022-07-26T02:34:01.353Z,99110.16
2022-07-26T02:34:34.137Z,99119.59
2022-07-26T02:35:06.423Z,99122.94
2022-07-26T02:35:38.510Z,99116.84
2022-07-26T02:36:10.438Z,99118.25
2022-07-26T02:36:42.393Z,99121.38
2022-07-26T02:37:14.333Z,99113.19
2022-07-26T02:37:46.225Z,99118.72
2022-07-26T02:38:18.911Z,99124.13
2022-07-26T02:38:51.778Z,99122.94
2022-07-26T02:39:28.318Z,99120.38
2022-07-26T02:40:00.235Z,99122.94
2022-07-26T02:40:33.291Z,99123.25
2022-07-26T02:41:06.319Z,99125.91
2022-07-26T02:41:38.719Z,99120.16
2022-07-26T02:42:10.638Z,99118.59
2022-07-26T02:42:42.556Z,99125.09
2022-07-26T02:43:14.463Z,99120.16
2022-07-26T02:43:46.680Z,99120.16
2022-07-26T02:44:18.996Z,99121.16
2022-07-26T02:44:50.888Z,99119.78
2022-07-26T02:45:22.857Z,99111.44
2022-07-26T02:46:01.226Z,99113.50
2022-07-26T02:46:34.008Z,99122.72
2022-07-26T02:47:05.982Z,99121.66
2022-07-26T02:47:49.055Z,99121.16
2022-07-26T02:48:20.965Z,99116.63
2022-07-26T02:48:55.465Z,99119.97
2022-07-26T02:49:27.442Z,99121.94
2022-07-26T02:49:59.528Z,99120.16
2022-07-26T02:50:31.583Z,99126.28
2022-07-26T02:51:03.803Z,99122.72
2022-07-26T02:51:35.721Z,99125.37
2022-07-26T02:52:07.643Z,99128.03
2022-07-26T02:52:39.586Z,99125.28
2022-07-26T02:53:11.509Z,99125.88
2022-07-26T02:53:43.395Z,99124.50
2022-07-26T02:54:15.740Z,99129.00
2022-07-26T02:54:47.638Z,99132.25
2022-07-26T02:55:21.888Z,99129.81
2022-07-26T02:55:53.822Z,99127.06
2022-07-26T02:56:25.752Z,99123.72
2022-07-26T02:56:57.687Z,99128.44
2022-07-26T02:57:29.574Z,99125.78
2022-07-26T02:58:17.454Z,99127.06
2022-07-26T02:58:49.391Z,99119.88
2022-07-26T02:59:21.628Z,99124.91
2022-07-26T02:59:53.632Z,99131.59
2022-07-26T03:00:26.792Z,99115.94
2022-07-26T03:00:58.855Z,99117.91
2022-07-26T03:01:31.445Z,99122.34
2022-07-26T03:02:03.443Z,99119.19
2022-07-26T03:02:35.813Z,99117.69
2022-07-26T03:03:07.798Z,99115.75
2022-07-26T03:03:39.832Z,99122.34
2022-07-26T03:04:11.827Z,99127.84
2022-07-26T03:04:44.113Z,99120.91
2022-07-26T03:05:16.538Z,99113.81
2022-07-26T03:05:48.624Z,99113.22
2022-07-26T03:06:20.791Z,99123.44
2022-07-26T03:06:52.709Z,99112.59
2022-07-26T03:07:24.643Z,99112.44
2022-07-26T03:07:56.589Z,99114.03
2022-07-26T03:08:28.626Z,99118.19
2022-07-26T03:09:00.640Z,99114.56
2022-07-26T03:09:32.572Z,99119.00
2022-07-26T03:10:05.380Z,99110.94
2022-07-26T03:10:37.361Z,99112.13
2022-07-26T03:11:12.148Z,99109.87
2022-07-26T03:11:44.290Z,99108.78
2022-07-26T03:12:16.209Z,99111.25
2022-07-26T03:12:48.206Z,99107.88
2022-07-26T03:13:20.107Z,99113.50
2022-07-26T03:13:52.052Z,99109.16
2022-07-26T03:14:24.601Z,99110.34
2022-07-26T03:14:56.632Z,99107.97
2022-07-26T03:15:29.004Z,99107.59
2022-07-26T03:16:01.105Z,99102.66
2022-07-26T03:16:33.575Z,99109.25
2022-07-26T03:17:05.497Z,99115.66
2022-07-26T03:17:38.021Z,99108.97
2022-07-26T03:18:09.990Z,99108.28
2022-07-26T03:18:42.001Z,99107.50
2022-07-26T03:19:13.919Z,99109.75
2022-07-26T03:19:45.865Z,99105.22
2022-07-26T03:20:17.883Z,99110.06
2022-07-26T03:20:50.428Z,99115.66
2022-07-26T03:21:22.409Z,99109.75
2022-07-26T03:21:54.304Z,99105.53
2022-07-26T03:22:26.209Z,99110.53
2022-07-26T03:22:58.124Z,99110.06
2022-07-26T03:23:33.448Z,99107.88
2022-07-26T03:24:06.319Z,99108.47
2022-07-26T03:24:38.488Z,99109.34
2022-07-26T03:25:10.449Z,99114.94
2022-07-26T03:25:42.598Z,99110.97
2022-07-26T03:26:15.584Z,99113.00
2022-07-26T03:26:47.515Z,99104.81
2022-07-26T03:27:19.481Z,99097.09
2022-07-26T03:27:54.175Z,99109.87
2022-07-26T03:28:31.193Z,99113.22
2022-07-26T03:29:03.302Z,99100.09
2022-07-26T03:29:35.358Z,99108.75
2022-07-26T03:30:08.193Z,99119.69
2022-07-26T03:30:40.169Z,99104.81
2022-07-26T03:31:13.324Z,99106.69
2022-07-26T03:31:45.656Z,99103.66
2022-07-26T03:32:17.721Z,99109.53
2022-07-26T03:32:49.818Z,99105.59
2022-07-26T03:33:21.727Z,99106.88
2022-07-26T03:33:53.672Z,99107.88
2022-07-26T03:34:25.678Z,99109.94
2022-07-26T03:34:57.684Z,99109.84
2022-07-26T03:35:29.618Z,99110.81
2022-07-26T03:36:11.808Z,99112.59
2022-07-26T03:36:47.744Z,99118.59
2022-07-26T03:37:20.440Z,99112.69
2022-07-26T03:37:52.780Z,99115.84
2022-07-26T03:38:24.769Z,99115.25
2022-07-26T03:38:56.894Z,99107.78
2022-07-26T03:39:28.879Z,99110.34
2022-07-26T03:40:00.795Z,99110.34
2022-07-26T03:40:32.681Z,99110.44
2022-07-26T03:41:04.606Z,99104.72
2022-07-26T03:41:36.545Z,99113.97
2022-07-26T03:42:08.786Z,99114.28
2022-07-26T03:42:40.731Z,99113.69
2022-07-26T03:43:14.127Z,99118.22
2022-07-26T03:43:46.031Z,99118.59
2022-07-26T03:44:18.041Z,99122.91
2022-07-26T03:44:49.955Z,99119.75
2022-07-26T03:45:21.993Z,99124.28
2022-07-26T03:45:54.580Z,99120.75
2022-07-26T03:46:27.544Z,99123.13
2022-07-26T03:46:59.753Z,99119.59
2022-07-26T03:47:31.938Z,99123.72
2022-07-26T03:48:04.114Z,99116.25
2022-07-26T03:48:36.102Z,99122.16
2022-07-26T03:49:10.918Z,99127.56
2022-07-26T03:49:45.151Z,99125.19
2022-07-26T03:50:17.123Z,99119.78
2022-07-26T03:50:49.269Z,99120.38
2022-07-26T03:51:21.341Z,99121.84
2022-07-26T03:51:53.311Z,99129.22
2022-07-26T03:52:25.256Z,99122.16
2022-07-26T03:52:57.477Z,99128.44
2022-07-26T03:53:29.408Z,99116.63
2022-07-26T03:54:01.345Z,99121.16
2022-07-26T03:54:33.266Z,99123.31
2022-07-26T03:55:26.170Z,99124.31
2022-07-26T03:56:16.874Z,99121.47
2022-07-26T03:56:48.954Z,99127.19
2022-07-26T03:57:20.868Z,99120.78
2022-07-26T03:57:53.576Z,99123.16
2022-07-26T03:58:25.804Z,99120.50
2022-07-26T03:59:07.443Z,99122.75
2022-07-26T03:59:39.376Z,99121.59
2022-07-26T04:00:12.476Z,99116.28
2022-07-26T04:00:46.178Z,99118.84
2022-07-26T04:01:18.448Z,99127.41
2022-07-26T04:01:50.781Z,99123.06
2022-07-26T04:02:22.797Z,99120.31
2022-07-26T04:02:55.163Z,99114.88
2022-07-26T04:03:27.133Z,99121.78
2022-07-26T04:03:59.256Z,99118.03
2022-07-26T04:04:31.181Z,99114.22
2022-07-26T04:05:04.096Z,99115.16
2022-07-26T04:05:36.169Z,99113.12
2022-07-26T04:06:09.014Z,99118.91
2022-07-26T04:06:41.776Z,99118.72
2022-07-26T04:07:15.003Z,99119.91
2022-07-26T04:07:53.222Z,99116.69
2022-07-26T04:08:26.263Z,99117.25
2022-07-26T04:08:58.336Z,99116.25
2022-07-26T04:09:30.299Z,99111.25
2022-07-26T04:10:02.245Z,99112.72
2022-07-26T04:10:35.273Z,99113.12
2022-07-26T04:11:07.274Z,99111.91
2022-07-26T04:11:40.292Z,99108.13
2022-07-26T04:12:12.235Z,99112.72
2022-07-26T04:12:44.125Z,99110.56
2022-07-26T04:13:16.063Z,99107.78
2022-07-26T04:13:47.952Z,99108.28
2022-07-26T04:14:19.953Z,99111.13
2022-07-26T04:14:51.895Z,99106.78
2022-07-26T04:15:23.813Z,99098.69
2022-07-26T04:15:55.822Z,99103.22
2022-07-26T04:16:28.151Z,99105.56
2022-07-26T04:17:00.533Z,99094.94
2022-07-26T04:17:43.186Z,99096.88
2022-07-26T04:18:15.460Z,99101.00
2022-07-26T04:18:47.358Z,99099.63
2022-07-26T04:19:19.279Z,99096.97
2022-07-26T04:19:51.162Z,99100.59
2022-07-26T04:20:23.069Z,99100.00
2022-07-26T04:20:55.003Z,99102.31
2022-07-26T04:21:26.934Z,99101.53
2022-07-26T04:21:58.997Z,99095.81
2022-07-26T04:22:31.819Z,99099.53
2022-07-26T04:23:03.804Z,99100.69
2022-07-26T04:23:43.788Z,99096.72
2022-07-26T04:24:17.245Z,99098.66
2022-07-26T04:24:49.166Z,99097.22
2022-07-26T04:25:21.252Z,99089.34
2022-07-26T04:25:53.190Z,99094.06
2022-07-26T04:26:25.392Z,99090.41
2022-07-26T04:26:57.323Z,99101.53
2022-07-26T04:27:29.238Z,99090.53
2022-07-26T04:28:02.197Z,99094.66
2022-07-26T04:28:34.158Z,99091.09
2022-07-26T04:29:06.103Z,99097.56
2022-07-26T04:29:39.579Z,99090.25
2022-07-26T04:30:15.050Z,99096.75
2022-07-26T04:30:48.021Z,99094.72
2022-07-26T04:31:20.168Z,99101.66
2022-07-26T04:31:52.185Z,99102.78
2022-07-26T04:32:24.342Z,99097.78
2022-07-26T04:32:56.257Z,99101.91
2022-07-26T04:33:28.572Z,99098.78
2022-07-26T04:34:00.475Z,99109.00
2022-07-26T04:34:32.391Z,99107.41
2022-07-26T04:35:04.642Z,99094.75
2022-07-26T04:35:36.610Z,99094.75
2022-07-26T04:36:08.897Z,99100.09
2022-07-26T04:36:40.803Z,99102.69
2022-07-26T04:37:12.749Z,99105.66
2022-07-26T04:37:46.145Z,99098.75
2022-07-26T04:38:18.544Z,99093.78
2022-07-26T04:38:50.807Z,99088.34
2022-07-26T04:39:24.669Z,99092.91
2022-07-26T04:39:56.583Z,99093.41
2022-07-26T04:40:33.400Z,99090.59
2022-07-26T04:41:05.715Z,99091.06
2022-07-26T04:41:37.625Z,99086.09
2022-07-26T04:42:10.134Z,99085.47
2022-07-26T04:42:42.053Z,99089.25
2022-07-26T04:43:15.379Z,99087.75
2022-07-26T04:43:48.028Z,99089.62
2022-07-26T04:44:20.219Z,99092.94
2022-07-26T04:44:52.132Z,99093.25
2022-07-26T04:45:24.051Z,99090.44
2022-07-26T04:45:57.627Z,99093.59
2022-07-26T04:46:29.816Z,99086.53
2022-07-26T04:47:01.832Z,99090.47
2022-07-26T04:47:34.317Z,99096.91
2022-07-26T04:48:06.862Z,99097.84
2022-07-26T04:48:39.291Z,99095.03
2022-07-26T04:49:11.349Z,99095.38
2022-07-26T04:49:44.199Z,99098.19
2022-07-26T04:50:17.397Z,99100.84
2022-07-26T04:50:49.463Z,99098.19
2022-07-26T04:51:21.390Z,99098.56
2022-07-26T04:51:58.989Z,99094.00
2022-07-26T04:52:31.298Z,99098.38
2022-07-26T04:53:04.660Z,99096.81
2022-07-26T04:53:36.793Z,99097.44
2022-07-26T04:54:09.058Z,99093.03
2022-07-26T04:54:41.194Z,99097.91
2022-07-26T04:55:13.801Z,99098.84
2022-07-26T04:55:45.807Z,99100.41
2022-07-26T04:56:17.701Z,99099.63
2022-07-26T04:56:50.125Z,99101.19
2022-07-26T04:57:22.155Z,99109.50
2022-07-26T04:57:54.210Z,99108.59
2022-07-26T04:58:26.414Z,99108.41
2022-07-26T04:58:58.343Z,99112.50
2022-07-26T04:59:32.547Z,99118.00
2022-07-26T05:00:21.167Z,99126.94
2022-07-26T05:01:11.049Z,99132.13
2022-07-26T05:01:44.221Z,99127.41
2022-07-26T05:02:16.297Z,99141.53
2022-07-26T05:02:51.971Z,99138.56
2022-07-26T05:03:25.254Z,99138.69
2022-07-26T05:03:57.458Z,99143.72
2022-07-26T05:04:29.443Z,99143.88
2022-07-26T05:05:01.397Z,99148.44
2022-07-26T05:05:33.782Z,99144.81
2022-07-26T05:06:06.280Z,99153.63
2022-07-26T05:06:38.276Z,99151.12
2022-07-26T05:07:10.942Z,99155.97
2022-07-26T05:07:47.659Z,99152.84
2022-07-26T05:08:20.010Z,99152.19
2022-07-26T05:08:51.927Z,99153.16
2022-07-26T05:09:23.954Z,99155.66
2022-07-26T05:09:55.833Z,99164.75
2022-07-26T05:10:35.418Z,99148.88
2022-07-26T05:11:07.807Z,99154.69
2022-07-26T05:11:39.718Z,99151.28
2022-07-26T05:12:11.688Z,99148.13
2022-07-26T05:12:43.757Z,99148.91
2022-07-26T05:13:15.696Z,99150.00
2022-07-26T05:13:47.592Z,99150.94
2022-07-26T05:14:19.542Z,99145.31
2022-07-26T05:14:54.085Z,99140.59
2022-07-26T05:15:34.939Z,99140.13
2022-07-26T05:16:11.928Z,99142.63
2022-07-26T05:16:46.033Z,99148.75
2022-07-26T05:17:18.141Z,99142.94
2022-07-26T05:17:51.895Z,99146.84
2022-07-26T05:18:23.847Z,99156.94
2022-07-26T05:18:55.778Z,99146.84
2022-07-26T05:19:27.723Z,99150.00
2022-07-26T05:20:03.174Z,99147.19
2022-07-26T05:20:36.713Z,99148.13
2022-07-26T05:21:08.939Z,99145.13
2022-07-26T05:21:41.135Z,99144.97
2022-07-26T05:22:13.091Z,99149.53
2022-07-26T05:22:45.429Z,99143.56
2022-07-26T05:23:17.380Z,99145.91
2022-07-26T05:23:49.292Z,99144.81
2022-07-26T05:24:21.353Z,99136.50
2022-07-26T05:24:53.259Z,99140.25
2022-07-26T05:25:25.807Z,99144.47
2022-07-26T05:25:57.791Z,99144.62
2022-07-26T05:26:30.011Z,99140.25
2022-07-26T05:27:01.921Z,99148.88
2022-07-26T05:27:34.230Z,99146.78
2022-07-26T05:28:06.310Z,99151.50
2022-07-26T05:28:41.908Z,99144.25
2022-07-26T05:29:14.163Z,99136.06
2022-07-26T05:29:46.246Z,99138.06
2022-07-26T05:30:18.345Z,99142.47
2022-07-26T05:30:50.654Z,99143.25
2022-07-26T05:31:22.726Z,99153.75
2022-07-26T05:31:55.024Z,99163.78
2022-07-26T05:32:28.223Z,99165.03
2022-07-26T05:33:00.206Z,99164.25
2022-07-26T05:33:32.118Z,99172.75
2022-07-26T05:34:04.129Z,99163.63
2022-07-26T05:34:36.130Z,99164.56
2022-07-26T05:35:08.552Z,99162.19
2022-07-26T05:35:40.479Z,99169.75
2022-07-26T05:36:12.798Z,99161.84
2022-07-26T05:36:44.735Z,99160.91
2022-07-26T05:37:17.052Z,99176.16
2022-07-26T05:37:48.949Z,99168.00
2022-07-26T05:38:20.916Z,99174.44
2022-07-26T05:38:52.828Z,99165.16
2022-07-26T05:39:24.815Z,99163.06
2022-07-26T05:39:56.945Z,99162.87
2022-07-26T05:40:29.123Z,99156.22
2022-07-26T05:41:01.038Z,99148.47
2022-07-26T05:41:33.048Z,99153.19
2022-07-26T05:42:05.235Z,99150.97
2022-07-26T05:42:37.573Z,99148.09
2022-07-26T05:43:09.583Z,99146.28
2022-07-26T05:43:42.188Z,99155.81
2022-07-26T05:44:14.298Z,99146.81
2022-07-26T05:44:46.271Z,99148.72
2022-07-26T05:45:18.312Z,99144.41
2022-07-26T05:45:50.269Z,99151.59
2022-07-26T05:46:22.343Z,99139.28
2022-07-26T05:46:54.519Z,99143.97
2022-07-26T05:47:26.481Z,99147.09
2022-07-26T05:47:59.165Z,99146.31
2022-07-26T05:48:31.143Z,99145.78
2022-07-26T05:49:06.714Z,99153.59
2022-07-26T05:49:39.726Z,99143.03
2022-07-26T05:50:12.730Z,99142.94
2022-07-26T05:50:44.731Z,99145.00
2022-07-26T05:51:16.625Z,99147.53
2022-07-26T05:51:48.520Z,99145.88
2022-07-26T05:52:21.982Z,99143.00
2022-07-26T05:52:54.180Z,99149.28
2022-07-26T05:53:26.568Z,99147.16
2022-07-26T05:53:58.500Z,99139.91
2022-07-26T05:54:30.441Z,99153.28
2022-07-26T05:55:02.353Z,99152.63
2022-07-26T05:55:34.729Z,99149.94
2022-07-26T05:56:07.178Z,99149.63
2022-07-26T05:56:39.228Z,99157.00
2022-07-26T05:57:11.508Z,99152.88
2022-07-26T05:57:47.391Z,99151.47
2022-07-26T05:58:22.059Z,99144.22
2022-07-26T05:58:54.343Z,99141.53
2022-07-26T05:59:26.269Z,99147.13
2022-07-26T05:59:58.219Z,99157.06
2022-07-26T06:00:30.554Z,99151.38
2022-07-26T06:01:03.183Z,99142.22
2022-07-26T06:01:35.945Z,99143.00
2022-07-26T06:02:08.548Z,99144.38
2022-07-26T06:02:41.873Z,99153.53
2022-07-26T06:03:22.907Z,99140.88
2022-07-26T06:03:54.872Z,99139.53
2022-07-26T06:04:27.659Z,99143.22
2022-07-26T06:04:59.628Z,99142.69
2022-07-26T06:05:31.572Z,99140.25
2022-07-26T06:06:03.974Z,99134.66
2022-07-26T06:06:36.084Z,99141.13
2022-07-26T06:07:08.086Z,99139.66
2022-07-26T06:07:39.983Z,99138.78
2022-07-26T06:08:12.028Z,99142.34
2022-07-26T06:08:44.006Z,99139.56
2022-07-26T06:09:16.360Z,99138.91
2022-07-26T06:09:48.353Z,99142.72
2022-07-26T06:10:20.269Z,99140.25
2022-07-26T06:10:52.753Z,99138.03
2022-07-26T06:11:24.906Z,99144.50
2022-07-26T06:11:56.817Z,99138.91
2022-07-26T06:12:28.746Z,99142.94
2022-07-26T06:13:00.863Z,99150.53
2022-07-26T06:13:32.856Z,99144.72
2022-07-26T06:14:04.924Z,99151.19
2022-07-26T06:14:36.909Z,99146.53
2022-07-26T06:15:14.903Z,99147.84
2022-07-26T06:15:48.037Z,99144.94
2022-07-26T06:16:19.966Z,99145.38
2022-07-26T06:16:52.246Z,99146.97
2022-07-26T06:17:24.361Z,99144.47
2022-07-26T06:17:56.386Z,99148.50
2022-07-26T06:18:28.435Z,99149.34
2022-07-26T06:19:00.378Z,99150.03
2022-07-26T06:19:32.960Z,99147.81
2022-07-26T06:20:05.359Z,99143.81
2022-07-26T06:20:45.198Z,99142.91
2022-07-26T06:21:17.149Z,99138.69
2022-07-26T06:21:49.169Z,99147.94
2022-07-26T06:22:21.463Z,99141.34
2022-07-26T06:22:53.470Z,99143.66
2022-07-26T06:23:33.564Z,99135.81
2022-07-26T06:24:07.182Z,99141.19
2022-07-26T06:24:39.288Z,99138.13
2022-07-26T06:25:11.248Z,99142.47
2022-07-26T06:25:43.245Z,99140.78
2022-07-26T06:26:15.247Z,99140.19